^^
Meteo Knjazevac Station Historical Data
Daily Summary for January 30, 2021 Units:  Both    English   Metric
Daily Weekly Monthly Yearly Custom
  High: Low: Average:
Temperature: 61.2 °F /  16.2 °C 49.5 °F /  9.7 °C 55.4 °F /  13 °C
Dew Point: 54.6 °F /  12.6 °C 47.8 °F /  8.8 °C 51 °F /  10.6 °C
Humidity: 96% 73% 85%
Wind Speed: 10mph /  16.1km/h - 2.6mph /  4.2km/h
Wind Gust: 18mph /  29km/h - -
Wind- - SW
Pressure: 30.13 in /  1020.2 hPa 30.09 in /  1018.8 hPa -
Precipitation: 0.00 in /  0 mm    
Historical Graphs
 
 
Tabular Data for January 30, 2021
Time Temperature Dew Point Pressure Wind Wind Speed Wind Gust Humidity Rainfall Rate (Hourly) solar Conditions
00:00 53.4 °F /  11.9 °C 49 °F /  9.4 °C 30.09in /  1018.8hPa East 1mph /  1.6km/h 3mph /  4.8km/h 85% 0.00in /  0mm 0 W/m2
00:10 53.4 °F /  11.9 °C 49 °F /  9.4 °C 30.09in /  1018.8hPa Calm   3mph /  4.8km/h 85% 0.00in /  0mm 0 W/m2
00:20 53.2 °F /  11.8 °C 48.8 °F /  9.3 °C 30.09in /  1018.8hPa East 1mph /  1.6km/h 3mph /  4.8km/h 85% 0.00in /  0mm 0 W/m2
00:30 53.2 °F /  11.8 °C 48.8 °F /  9.3 °C 30.09in /  1018.8hPa SE 2mph /  3.2km/h 3mph /  4.8km/h 85% 0.00in /  0mm 0 W/m2
00:40 53.1 °F /  11.7 °C 48.7 °F /  9.3 °C 30.09in /  1018.8hPa ESE 1mph /  1.6km/h 3mph /  4.8km/h 85% 0.00in /  0mm 0 W/m2
00:50 53.1 °F /  11.7 °C 48.7 °F /  9.3 °C 30.09in /  1018.8hPa East 1mph /  1.6km/h 3mph /  4.8km/h 85% 0.00in /  0mm 0 W/m2
01:00 52.9 °F /  11.6 °C 48.5 °F /  9.2 °C 30.09in /  1018.8hPa Calm   2mph /  3.2km/h 85% 0.00in /  0mm 0 W/m2
01:10 52.9 °F /  11.6 °C 48.8 °F /  9.3 °C 30.09in /  1018.8hPa Calm   2mph /  3.2km/h 86% 0.00in /  0mm 0 W/m2
01:20 52.7 °F /  11.5 °C 49.2 °F /  9.6 °C 30.09in /  1018.8hPa Calm   2mph /  3.2km/h 88% 0.00in /  0mm 0 W/m2
01:30 52.7 °F /  11.5 °C 49.2 °F /  9.6 °C 30.09in /  1018.8hPa Calm   2mph /  3.2km/h 88% 0.00in /  0mm 0 W/m2
01:40 52.5 °F /  11.4 °C 49.1 °F /  9.5 °C 30.09in /  1018.8hPa Calm   2mph /  3.2km/h 88% 0.00in /  0mm 0 W/m2
01:50 52.3 °F /  11.3 °C 48.9 °F /  9.4 °C 30.09in /  1018.8hPa Calm   2mph /  3.2km/h 88% 0.00in /  0mm 0 W/m2
02:00 52.2 °F /  11.2 °C 48.7 °F /  9.3 °C 30.09in /  1018.8hPa NNE 2mph /  3.2km/h 3mph /  4.8km/h 88% 0.00in /  0mm 0 W/m2
02:10 52.1 °F /  11.2 °C 48.9 °F /  9.4 °C 30.09in /  1018.8hPa Calm   2mph /  3.2km/h 89% 0.00in /  0mm 0 W/m2
02:20 52 °F /  11.1 °C 48.8 °F /  9.3 °C 30.09in /  1018.8hPa Calm   2mph /  3.2km/h 89% 0.00in /  0mm 0 W/m2
02:30 51.8 °F /  11 °C 48.7 °F /  9.3 °C 30.09in /  1018.8hPa NW 1mph /  1.6km/h 2mph /  3.2km/h 89% 0.00in /  0mm 0 W/m2
02:40 51.6 °F /  10.9 °C 48.8 °F /  9.3 °C 30.09in /  1018.8hPa Calm   2mph /  3.2km/h 90% 0.00in /  0mm 0 W/m2
02:50 51.4 °F /  10.8 °C 48.3 °F /  9.1 °C 30.09in /  1018.8hPa Calm   3mph /  4.8km/h 89% 0.00in /  0mm 0 W/m2
03:00 51.4 °F /  10.8 °C 48.3 °F /  9.1 °C 30.09in /  1018.8hPa Calm   1mph /  1.6km/h 89% 0.00in /  0mm 0 W/m2
03:10 51.4 °F /  10.8 °C 48.6 °F /  9.2 °C 30.09in /  1018.8hPa Calm   1mph /  1.6km/h 90% 0.00in /  0mm 0 W/m2
03:20 51.3 °F /  10.7 °C 48.7 °F /  9.3 °C 30.09in /  1018.8hPa SW 1mph /  1.6km/h 2mph /  3.2km/h 91% 0.00in /  0mm 0 W/m2
03:30 51.1 °F /  10.6 °C 48.5 °F /  9.2 °C 30.09in /  1018.8hPa Calm   1mph /  1.6km/h 91% 0.00in /  0mm 0 W/m2
03:40 50.9 °F /  10.5 °C 48.9 °F /  9.4 °C 30.09in /  1018.8hPa Calm   1mph /  1.6km/h 93% 0.00in /  0mm 0 W/m2
03:50 50.9 °F /  10.5 °C 48.9 °F /  9.4 °C 30.09in /  1018.8hPa Calm   3mph /  4.8km/h 93% 0.00in /  0mm 0 W/m2
04:00 50.9 °F /  10.5 °C 48.9 °F /  9.4 °C 30.09in /  1018.8hPa Calm   2mph /  3.2km/h 93% 0.00in /  0mm 0 W/m2
04:10 50.9 °F /  10.5 °C 48.4 °F /  9.1 °C 30.09in /  1018.8hPa SSW 2mph /  3.2km/h 5mph /  8km/h 91% 0.00in /  0mm 0 W/m2
04:20 51 °F /  10.6 °C 49 °F /  9.4 °C 30.09in /  1018.8hPa Calm   2mph /  3.2km/h 93% 0.00in /  0mm 0 W/m2
04:30 50.9 °F /  10.5 °C 48.9 °F /  9.4 °C 30.09in /  1018.8hPa West 1mph /  1.6km/h 2mph /  3.2km/h 93% 0.00in /  0mm 0 W/m2
04:40 50.9 °F /  10.5 °C 49.2 °F /  9.6 °C 30.09in /  1018.8hPa Calm   2mph /  3.2km/h 94% 0.00in /  0mm 0 W/m2
04:50 50.7 °F /  10.4 °C 49.1 °F /  9.5 °C 30.09in /  1018.8hPa Calm   2mph /  3.2km/h 94% 0.00in /  0mm 0 W/m2
05:00 50.9 °F /  10.5 °C 49.2 °F /  9.6 °C 30.09in /  1018.8hPa Calm   2mph /  3.2km/h 94% 0.00in /  0mm 2 W/m2
05:10 50.9 °F /  10.5 °C 49.2 °F /  9.6 °C 30.09in /  1018.8hPa Calm   2mph /  3.2km/h 94% 0.00in /  0mm 5 W/m2
05:20 50.9 °F /  10.5 °C 49.5 °F /  9.7 °C 30.09in /  1018.8hPa NW 1mph /  1.6km/h 2mph /  3.2km/h 95% 0.00in /  0mm 11 W/m2
05:30 50.9 °F /  10.5 °C 49.5 °F /  9.7 °C 30.10in /  1019.2hPa West 1mph /  1.6km/h 3mph /  4.8km/h 95% 0.00in /  0mm 19 W/m2
05:40 50.9 °F /  10.5 °C 49.5 °F /  9.7 °C 30.10in /  1019.2hPa West 2mph /  3.2km/h 3mph /  4.8km/h 95% 0.00in /  0mm 25 W/m2
05:50 50.9 °F /  10.5 °C 49.5 °F /  9.7 °C 30.10in /  1019.2hPa Calm   3mph /  4.8km/h 95% 0.00in /  0mm 31 W/m2
06:00 50.9 °F /  10.5 °C 49.5 °F /  9.7 °C 30.10in /  1019.2hPa WSW 1mph /  1.6km/h 3mph /  4.8km/h 95% 0.00in /  0mm 44 W/m2
06:10 50.9 °F /  10.5 °C 49.8 °F /  9.9 °C 30.10in /  1019.2hPa West 1mph /  1.6km/h 3mph /  4.8km/h 96% 0.00in /  0mm 55 W/m2
06:20 51.1 °F /  10.6 °C 50 °F /  10 °C 30.10in /  1019.2hPa Calm   2mph /  3.2km/h 96% 0.00in /  0mm 69 W/m2
06:30 51.4 °F /  10.8 °C 50.3 °F /  10.2 °C 30.10in /  1019.2hPa WNW 1mph /  1.6km/h 2mph /  3.2km/h 96% 0.00in /  0mm 78 W/m2
06:40 51.6 °F /  10.9 °C 50.5 °F /  10.3 °C 30.10in /  1019.2hPa Calm   3mph /  4.8km/h 96% 0.00in /  0mm 93 W/m2
06:50 51.8 °F /  11 °C 50.4 °F /  10.2 °C 30.10in /  1019.2hPa Calm   2mph /  3.2km/h 95% 0.00in /  0mm 105 W/m2
07:00 52.2 °F /  11.2 °C 50.8 °F /  10.4 °C 30.10in /  1019.2hPa Calm   1mph /  1.6km/h 95% 0.00in /  0mm 120 W/m2
07:10 52.5 °F /  11.4 °C 51.1 °F /  10.6 °C 30.11in /  1019.5hPa WSW 2mph /  3.2km/h 3mph /  4.8km/h 95% 0.00in /  0mm 162 W/m2
07:20 53 °F /  11.7 °C 51.6 °F /  10.9 °C 30.11in /  1019.5hPa SW 2mph /  3.2km/h 3mph /  4.8km/h 95% 0.00in /  0mm 229 W/m2
07:30 53.8 °F /  12.1 °C 52.1 °F /  11.2 °C 30.11in /  1019.5hPa NE 2mph /  3.2km/h 5mph /  8km/h 94% 0.00in /  0mm 210 W/m2
07:40 54.3 °F /  12.4 °C 51.7 °F /  10.9 °C 30.11in /  1019.5hPa North 1mph /  1.6km/h 4mph /  6.4km/h 91% 0.00in /  0mm 217 W/m2
07:50 54.9 °F /  12.7 °C 52 °F /  11.1 °C 30.12in /  1019.9hPa SW 2mph /  3.2km/h 5mph /  8km/h 90% 0.00in /  0mm 153 W/m2
08:00 55.5 °F /  13.1 °C 51.1 °F /  10.6 °C 30.12in /  1019.9hPa West 7mph /  11.3km/h 13mph /  20.9km/h 85% 0.00in /  0mm 441 W/m2
08:10 56.1 °F /  13.4 °C 51 °F /  10.6 °C 30.12in /  1019.9hPa West 7mph /  11.3km/h 14mph /  22.5km/h 83% 0.00in /  0mm 413 W/m2
08:20 56.5 °F /  13.6 °C 50.7 °F /  10.4 °C 30.11in /  1019.5hPa West 7mph /  11.3km/h 14mph /  22.5km/h 81% 0.00in /  0mm 190 W/m2
08:30 57 °F /  13.9 °C 50.9 °F /  10.5 °C 30.12in /  1019.9hPa WSW 5mph /  8km/h 12mph /  19.3km/h 80% 0.00in /  0mm 512 W/m2
08:40 57.7 °F /  14.3 °C 51.3 °F /  10.7 °C 30.12in /  1019.9hPa West 7mph /  11.3km/h 13mph /  20.9km/h 79% 0.00in /  0mm 284 W/m2
08:50 57.9 °F /  14.4 °C 51.4 °F /  10.8 °C 30.12in /  1019.9hPa West 9mph /  14.5km/h 15mph /  24.1km/h 79% 0.00in /  0mm 263 W/m2
09:00 57.9 °F /  14.4 °C 51.1 °F /  10.6 °C 30.12in /  1019.9hPa West 10mph /  16.1km/h 18mph /  29km/h 78% 0.00in /  0mm 582 W/m2
09:10 58.6 °F /  14.8 °C 51.8 °F /  11 °C 30.12in /  1019.9hPa WSW 8mph /  12.9km/h 15mph /  24.1km/h 78% 0.00in /  0mm 695 W/m2
09:20 59.5 °F /  15.3 °C 52.3 °F /  11.3 °C 30.12in /  1019.9hPa West 5mph /  8km/h 12mph /  19.3km/h 77% 0.00in /  0mm 592 W/m2
09:30 60.1 °F /  15.6 °C 52.1 °F /  11.2 °C 30.12in /  1019.9hPa WSW 9mph /  14.5km/h 15mph /  24.1km/h 75% 0.00in /  0mm 604 W/m2
09:40 60.4 °F /  15.8 °C 52.5 °F /  11.4 °C 30.12in /  1019.9hPa West 6mph /  9.7km/h 13mph /  20.9km/h 75% 0.00in /  0mm 518 W/m2
09:50 60.4 °F /  15.8 °C 52 °F /  11.1 °C 30.12in /  1019.9hPa WSW 7mph /  11.3km/h 13mph /  20.9km/h 74% 0.00in /  0mm 542 W/m2
10:00 60.3 °F /  15.7 °C 52.3 °F /  11.3 °C 30.12in /  1019.9hPa West 6mph /  9.7km/h 15mph /  24.1km/h 75% 0.00in /  0mm 371 W/m2
10:10 60.1 °F /  15.6 °C 51.8 °F /  11 °C 30.12in /  1019.9hPa West 5mph /  8km/h 11mph /  17.7km/h 74% 0.00in /  0mm 444 W/m2
10:20 60.1 °F /  15.6 °C 52.1 °F /  11.2 °C 30.12in /  1019.9hPa West 6mph /  9.7km/h 13mph /  20.9km/h 75% 0.00in /  0mm 413 W/m2
10:30 59.9 °F /  15.5 °C 51.6 °F /  10.9 °C 30.13in /  1020.2hPa West 7mph /  11.3km/h 13mph /  20.9km/h 74% 0.00in /  0mm 450 W/m2
10:40 60.2 °F /  15.7 °C 52.2 °F /  11.2 °C 30.13in /  1020.2hPa WSW 6mph /  9.7km/h 10mph /  16.1km/h 75% 0.00in /  0mm 502 W/m2
10:50 60.4 °F /  15.8 °C 52.5 °F /  11.4 °C 30.13in /  1020.2hPa West 6mph /  9.7km/h 9mph /  14.5km/h 75% 0.00in /  0mm 652 W/m2
11:00 60.6 °F /  15.9 °C 51.9 °F /  11.1 °C 30.13in /  1020.2hPa West 7mph /  11.3km/h 14mph /  22.5km/h 73% 0.00in /  0mm 482 W/m2
11:10 60.3 °F /  15.7 °C 52 °F /  11.1 °C 30.12in /  1019.9hPa West 7mph /  11.3km/h 14mph /  22.5km/h 74% 0.00in /  0mm 463 W/m2
11:20 60.4 °F /  15.8 °C 52.1 °F /  11.2 °C 30.12in /  1019.9hPa West 7mph /  11.3km/h 12mph /  19.3km/h 74% 0.00in /  0mm 706 W/m2
11:30 61 °F /  16.1 °C 52.6 °F /  11.4 °C 30.12in /  1019.9hPa WSW 8mph /  12.9km/h 13mph /  20.9km/h 74% 0.00in /  0mm 563 W/m2
11:40 61.2 °F /  16.2 °C 52.8 °F /  11.6 °C 30.12in /  1019.9hPa WSW 7mph /  11.3km/h 14mph /  22.5km/h 74% 0.00in /  0mm 534 W/m2
11:50 61 °F /  16.1 °C 52.6 °F /  11.4 °C 30.12in /  1019.9hPa WSW 3mph /  4.8km/h 12mph /  19.3km/h 74% 0.00in /  0mm 406 W/m2
12:00 60.8 °F /  16 °C 52.5 °F /  11.4 °C 30.12in /  1019.9hPa West 6mph /  9.7km/h 12mph /  19.3km/h 74% 0.00in /  0mm 374 W/m2
12:10 60.1 °F /  15.6 °C 52.2 °F /  11.2 °C 30.12in /  1019.9hPa West 7mph /  11.3km/h 13mph /  20.9km/h 75% 0.00in /  0mm 207 W/m2
12:20 59.2 °F /  15.1 °C 51.6 °F /  10.9 °C 30.12in /  1019.9hPa West 8mph /  12.9km/h 13mph /  20.9km/h 76% 0.00in /  0mm 183 W/m2
12:30 58.5 °F /  14.7 °C 51.6 °F /  10.9 °C 30.12in /  1019.9hPa West 5mph /  8km/h 11mph /  17.7km/h 78% 0.00in /  0mm 137 W/m2
12:40 57.8 °F /  14.3 °C 51.3 °F /  10.7 °C 30.12in /  1019.9hPa West 5mph /  8km/h 11mph /  17.7km/h 79% 0.00in /  0mm 153 W/m2
12:50 57.6 °F /  14.2 °C 51.1 °F /  10.6 °C 30.12in /  1019.9hPa West 3mph /  4.8km/h 10mph /  16.1km/h 79% 0.00in /  0mm 169 W/m2
13:00 57.6 °F /  14.2 °C 51.4 °F /  10.8 °C 30.12in /  1019.9hPa West 3mph /  4.8km/h 7mph /  11.3km/h 80% 0.00in /  0mm 236 W/m2
13:10 57.7 °F /  14.3 °C 51.6 °F /  10.9 °C 30.13in /  1020.2hPa West 2mph /  3.2km/h 7mph /  11.3km/h 80% 0.00in /  0mm 197 W/m2
13:20 57.7 °F /  14.3 °C 51.6 °F /  10.9 °C 30.13in /  1020.2hPa West 3mph /  4.8km/h 6mph /  9.7km/h 80% 0.00in /  0mm 170 W/m2
13:30 57.6 °F /  14.2 °C 51.1 °F /  10.6 °C 30.13in /  1020.2hPa WSW 5mph /  8km/h 10mph /  16.1km/h 79% 0.00in /  0mm 215 W/m2
13:40 57.7 °F /  14.3 °C 51.6 °F /  10.9 °C 30.13in /  1020.2hPa WSW 5mph /  8km/h 7mph /  11.3km/h 80% 0.00in /  0mm 193 W/m2
13:50 57.6 °F /  14.2 °C 51.8 °F /  11 °C 30.12in /  1019.9hPa WSW 5mph /  8km/h 7mph /  11.3km/h 81% 0.00in /  0mm 184 W/m2
14:00 57.4 °F /  14.1 °C 51.6 °F /  10.9 °C 30.12in /  1019.9hPa WSW 2mph /  3.2km/h 7mph /  11.3km/h 81% 0.00in /  0mm 166 W/m2
14:10 57.4 °F /  14.1 °C 51.6 °F /  10.9 °C 30.12in /  1019.9hPa WSW 1mph /  1.6km/h 5mph /  8km/h 81% 0.00in /  0mm 191 W/m2
14:20 57.6 °F /  14.2 °C 52.1 °F /  11.2 °C 30.12in /  1019.9hPa WNW 1mph /  1.6km/h 5mph /  8km/h 82% 0.00in /  0mm 263 W/m2
14:30 57.7 °F /  14.3 °C 51.6 °F /  10.9 °C 30.12in /  1019.9hPa WSW 3mph /  4.8km/h 6mph /  9.7km/h 80% 0.00in /  0mm 213 W/m2
14:40 57.9 °F /  14.4 °C 51.8 °F /  11 °C 30.12in /  1019.9hPa SW 2mph /  3.2km/h 5mph /  8km/h 80% 0.00in /  0mm 198 W/m2
14:50 57.9 °F /  14.4 °C 51.8 °F /  11 °C 30.12in /  1019.9hPa SSW 2mph /  3.2km/h 5mph /  8km/h 80% 0.00in /  0mm 127 W/m2
15:00 57.9 °F /  14.4 °C 52.1 °F /  11.2 °C 30.12in /  1019.9hPa SW 2mph /  3.2km/h 6mph /  9.7km/h 81% 0.00in /  0mm 138 W/m2
15:10 57.8 °F /  14.3 °C 52 °F /  11.1 °C 30.12in /  1019.9hPa SW 5mph /  8km/h 6mph /  9.7km/h 81% 0.00in /  0mm 176 W/m2
15:20 57.7 °F /  14.3 °C 52.6 °F /  11.4 °C 30.12in /  1019.9hPa SW 6mph /  9.7km/h 9mph /  14.5km/h 83% 0.00in /  0mm 174 W/m2
15:30 57.4 °F /  14.1 °C 52.6 °F /  11.4 °C 30.12in /  1019.9hPa SW 3mph /  4.8km/h 9mph /  14.5km/h 84% 0.00in /  0mm 179 W/m2
15:40 57.4 °F /  14.1 °C 53.2 °F /  11.8 °C 30.12in /  1019.9hPa SW 3mph /  4.8km/h 7mph /  11.3km/h 86% 0.00in /  0mm 228 W/m2
15:50 57.4 °F /  14.1 °C 53.9 °F /  12.2 °C 30.12in /  1019.9hPa South 1mph /  1.6km/h 7mph /  11.3km/h 88% 0.00in /  0mm 237 W/m2
16:00 57.6 °F /  14.2 °C 53.4 °F /  11.9 °C 30.12in /  1019.9hPa SSE 3mph /  4.8km/h 7mph /  11.3km/h 86% 0.00in /  0mm 228 W/m2
16:10 57.4 °F /  14.1 °C 53.2 °F /  11.8 °C 30.12in /  1019.9hPa South 2mph /  3.2km/h 9mph /  14.5km/h 86% 0.00in /  0mm 198 W/m2
16:20 57.6 °F /  14.2 °C 53.4 °F /  11.9 °C 30.11in /  1019.5hPa South 5mph /  8km/h 7mph /  11.3km/h 86% 0.00in /  0mm 169 W/m2
16:30 57.4 °F /  14.1 °C 52.9 °F /  11.6 °C 30.12in /  1019.9hPa SSE 3mph /  4.8km/h 6mph /  9.7km/h 85% 0.00in /  0mm 130 W/m2
16:40 57.2 °F /  14 °C 52.7 °F /  11.5 °C 30.11in /  1019.5hPa SSE 3mph /  4.8km/h 6mph /  9.7km/h 85% 0.00in /  0mm 177 W/m2
16:50 57.6 °F /  14.2 °C 54 °F /  12.2 °C 30.11in /  1019.5hPa SSE 3mph /  4.8km/h 7mph /  11.3km/h 88% 0.00in /  0mm 330 W/m2
17:00 58.1 °F /  14.5 °C 54.6 °F /  12.6 °C 30.10in /  1019.2hPa SSE 2mph /  3.2km/h 6mph /  9.7km/h 88% 0.00in /  0mm 332 W/m2
17:10 58.8 °F /  14.9 °C 54.3 °F /  12.4 °C 30.10in /  1019.2hPa SSW 3mph /  4.8km/h 7mph /  11.3km/h 85% 0.00in /  0mm 312 W/m2
17:20 58.8 °F /  14.9 °C 54 °F /  12.2 °C 30.10in /  1019.2hPa SSW 3mph /  4.8km/h 7mph /  11.3km/h 84% 0.00in /  0mm 221 W/m2
17:30 58.6 °F /  14.8 °C 53.8 °F /  12.1 °C 30.09in /  1018.8hPa SSW 3mph /  4.8km/h 6mph /  9.7km/h 84% 0.00in /  0mm 197 W/m2
17:40 58.6 °F /  14.8 °C 53.5 °F /  11.9 °C 30.09in /  1018.8hPa SSW 3mph /  4.8km/h 6mph /  9.7km/h 83% 0.00in /  0mm 259 W/m2
17:50 58.7 °F /  14.8 °C 53.5 °F /  11.9 °C 30.10in /  1019.2hPa SSW 3mph /  4.8km/h 6mph /  9.7km/h 83% 0.00in /  0mm 168 W/m2
18:00 58.5 °F /  14.7 °C 53.3 °F /  11.8 °C 30.10in /  1019.2hPa SSW 3mph /  4.8km/h 6mph /  9.7km/h 83% 0.00in /  0mm 134 W/m2
18:10 58.3 °F /  14.6 °C 53.1 °F /  11.7 °C 30.09in /  1018.8hPa SSW 2mph /  3.2km/h 6mph /  9.7km/h 83% 0.00in /  0mm 155 W/m2
18:20 58.3 °F /  14.6 °C 53.1 °F /  11.7 °C 30.09in /  1018.8hPa South 2mph /  3.2km/h 4mph /  6.4km/h 83% 0.00in /  0mm 90 W/m2
18:30 57.9 °F /  14.4 °C 52.8 °F /  11.6 °C 30.09in /  1018.8hPa SSE 2mph /  3.2km/h 6mph /  9.7km/h 83% 0.00in /  0mm 93 W/m2
18:40 57.7 °F /  14.3 °C 52.6 °F /  11.4 °C 30.09in /  1018.8hPa South 1mph /  1.6km/h 5mph /  8km/h 83% 0.00in /  0mm 86 W/m2
18:50 57.7 °F /  14.3 °C 53.3 °F /  11.8 °C 30.10in /  1019.2hPa SSE 2mph /  3.2km/h 5mph /  8km/h 85% 0.00in /  0mm 55 W/m2
19:00 57.4 °F /  14.1 °C 52.9 °F /  11.6 °C 30.09in /  1018.8hPa SSE 2mph /  3.2km/h 6mph /  9.7km/h 85% 0.00in /  0mm 47 W/m2
19:10 57.2 °F /  14 °C 52.7 °F /  11.5 °C 30.10in /  1019.2hPa SSE 2mph /  3.2km/h 5mph /  8km/h 85% 0.00in /  0mm 39 W/m2
19:20 56.8 °F /  13.8 °C 52.1 °F /  11.2 °C 30.09in /  1018.8hPa SSE 3mph /  4.8km/h 6mph /  9.7km/h 84% 0.00in /  0mm 45 W/m2
19:30 56.8 °F /  13.8 °C 52.1 °F /  11.2 °C 30.09in /  1018.8hPa SSE 5mph /  8km/h 6mph /  9.7km/h 84% 0.00in /  0mm 37 W/m2
19:40 56.7 °F /  13.7 °C 51.9 °F /  11.1 °C 30.09in /  1018.8hPa SSE 2mph /  3.2km/h 7mph /  11.3km/h 84% 0.00in /  0mm 24 W/m2
19:50 56.5 °F /  13.6 °C 51.7 °F /  10.9 °C 30.09in /  1018.8hPa SSE 2mph /  3.2km/h 4mph /  6.4km/h 84% 0.00in /  0mm 12 W/m2
20:00 56.5 °F /  13.6 °C 51.7 °F /  10.9 °C 30.09in /  1018.8hPa SSE 2mph /  3.2km/h 5mph /  8km/h 84% 0.00in /  0mm 4 W/m2
20:10 56.2 °F /  13.4 °C 51.7 °F /  10.9 °C 30.09in /  1018.8hPa SSE 3mph /  4.8km/h 5mph /  8km/h 85% 0.00in /  0mm 0 W/m2
20:20 56 °F /  13.3 °C 51.5 °F /  10.8 °C 30.09in /  1018.8hPa SSE 2mph /  3.2km/h 5mph /  8km/h 85% 0.00in /  0mm 0 W/m2
20:30 55.8 °F /  13.2 °C 51.6 °F /  10.9 °C 30.10in /  1019.2hPa SE 2mph /  3.2km/h 6mph /  9.7km/h 86% 0.00in /  0mm 0 W/m2
20:40 55.6 °F /  13.1 °C 51.5 °F /  10.8 °C 30.10in /  1019.2hPa SSE 2mph /  3.2km/h 6mph /  9.7km/h 86% 0.00in /  0mm 0 W/m2
20:50 55.4 °F /  13 °C 51.3 °F /  10.7 °C 30.10in /  1019.2hPa SE 1mph /  1.6km/h 5mph /  8km/h 86% 0.00in /  0mm 0 W/m2
21:00 55 °F /  12.8 °C 51.5 °F /  10.8 °C 30.10in /  1019.2hPa SSE 2mph /  3.2km/h 4mph /  6.4km/h 88% 0.00in /  0mm 0 W/m2
21:10 54.9 °F /  12.7 °C 51.4 °F /  10.8 °C 30.10in /  1019.2hPa SE 3mph /  4.8km/h 5mph /  8km/h 88% 0.00in /  0mm 0 W/m2
21:20 54.5 °F /  12.5 °C 51 °F /  10.6 °C 30.10in /  1019.2hPa SSE 2mph /  3.2km/h 5mph /  8km/h 88% 0.00in /  0mm 0 W/m2
21:30 54.3 °F /  12.4 °C 50.8 °F /  10.4 °C 30.10in /  1019.2hPa WSW 1mph /  1.6km/h 3mph /  4.8km/h 88% 0.00in /  0mm 0 W/m2
21:40 54 °F /  12.2 °C 50.5 °F /  10.3 °C 30.10in /  1019.2hPa East 2mph /  3.2km/h 4mph /  6.4km/h 88% 0.00in /  0mm 0 W/m2
21:50 53.6 °F /  12 °C 50.2 °F /  10.1 °C 30.11in /  1019.5hPa Calm   3mph /  4.8km/h 88% 0.00in /  0mm 0 W/m2
22:00 53.3 °F /  11.8 °C 50.1 °F /  10.1 °C 30.11in /  1019.5hPa Calm   2mph /  3.2km/h 89% 0.00in /  0mm 0 W/m2
22:10 52.9 °F /  11.6 °C 50 °F /  10 °C 30.10in /  1019.2hPa WSW 1mph /  1.6km/h 3mph /  4.8km/h 90% 0.00in /  0mm 0 W/m2
22:20 52.5 °F /  11.4 °C 49.7 °F /  9.8 °C 30.11in /  1019.5hPa South 1mph /  1.6km/h 2mph /  3.2km/h 90% 0.00in /  0mm 0 W/m2
22:30 52.2 °F /  11.2 °C 49.3 °F /  9.6 °C 30.11in /  1019.5hPa Calm   2mph /  3.2km/h 90% 0.00in /  0mm 0 W/m2
22:40 51.8 °F /  11 °C 49 °F /  9.4 °C 30.11in /  1019.5hPa SE 1mph /  1.6km/h 2mph /  3.2km/h 90% 0.00in /  0mm 0 W/m2
22:50 51.4 °F /  10.8 °C 48.9 °F /  9.4 °C 30.11in /  1019.5hPa WSW 1mph /  1.6km/h 3mph /  4.8km/h 91% 0.00in /  0mm 0 W/m2
23:00 51.1 °F /  10.6 °C 48.5 °F /  9.2 °C 30.11in /  1019.5hPa NNW 1mph /  1.6km/h 3mph /  4.8km/h 91% 0.00in /  0mm 0 W/m2
23:10 50.7 °F /  10.4 °C 48.8 °F /  9.3 °C 30.11in /  1019.5hPa Calm   2mph /  3.2km/h 93% 0.00in /  0mm 0 W/m2
23:20 50.4 °F /  10.2 °C 48.4 °F /  9.1 °C 30.11in /  1019.5hPa SW 1mph /  1.6km/h 2mph /  3.2km/h 93% 0.00in /  0mm 0 W/m2
23:30 50 °F /  10 °C 48.1 °F /  8.9 °C 30.11in /  1019.5hPa South 1mph /  1.6km/h 3mph /  4.8km/h 93% 0.00in /  0mm 0 W/m2
23:40 49.8 °F /  9.9 °C 47.9 °F /  8.8 °C 30.11in /  1019.5hPa WSW 1mph /  1.6km/h 2mph /  3.2km/h 93% 0.00in /  0mm 0 W/m2
23:50 49.5 °F /  9.7 °C 47.8 °F /  8.8 °C 30.10in /  1019.2hPa Calm   2mph /  3.2km/h 94% 0.00in /  0mm 0 W/m2
Knjazevac, Serbia
Compliments of Weather Underground - 2 mb